Time;durP1;ratioP1;P1;durP2;ratioP2;P2;SDS_P1;SDS_P2;PMS_P1;PMS_P2;Temp;Humidity;BMP_temperature;BMP_pressure;BME280_temperature;BME280_humidity;BME280_pressure;Samples;Min_cycle;Max_cycle;Signal;HPM_P1;HPM_P2
2023/03/22 00:01:48;;;;;;;9.80;6.93;;;;;;;11.61;90.58;97990.06;4138043;28;20625;-84
2023/03/22 00:03:52;;;;;;;12.50;6.90;;;;;;;11.57;89.37;97997.28;4124690;28;20634;-84
2023/03/22 00:05:58;;;;;;;10.07;7.13;;;;;;;11.57;89.34;97991.22;4118957;28;20724;-84
2023/03/22 00:08:04;;;;;;;8.53;7.30;;;;;;;11.56;91.49;97989.53;4127569;28;20651;-84
2023/03/22 00:10:08;;;;;;;8.07;6.70;;;;;;;11.56;91.60;97992.16;4119166;28;20752;-84
2023/03/22 00:12:12;;;;;;;9.47;7.10;;;;;;;11.52;88.92;97986.34;4124771;28;20636;-84
2023/03/22 00:14:15;;;;;;;8.40;7.43;;;;;;;11.49;90.70;97981.34;4108943;28;21307;-84
2023/03/22 00:16:19;;;;;;;8.80;7.20;;;;;;;11.48;89.34;97982.28;4125406;28;20636;-84
2023/03/22 00:18:22;;;;;;;9.10;6.60;;;;;;;11.41;88.95;97975.81;4120935;28;20632;-84
2023/03/22 00:20:25;;;;;;;11.03;7.23;;;;;;;11.33;90.58;97978.13;4136711;28;20641;-84
2023/03/22 00:22:28;;;;;;;7.90;6.97;;;;;;;11.32;89.37;97979.09;4111398;28;21241;-84
2023/03/22 00:24:31;;;;;;;7.77;6.80;;;;;;;11.30;89.96;97972.31;4124375;28;20635;-84
2023/03/22 00:26:34;;;;;;;8.70;6.60;;;;;;;11.25;87.66;97964.00;4136571;28;20642;-83
2023/03/22 00:28:39;;;;;;;10.03;7.37;;;;;;;11.17;89.60;97961.13;4124352;28;20662;-84
2023/03/22 00:30:43;;;;;;;11.20;7.07;;;;;;;11.14;88.48;97958.72;4122151;28;20671;-84
2023/03/22 00:32:47;;;;;;;8.80;7.37;;;;;;;11.13;89.28;97966.69;4120862;28;20639;-84
2023/03/22 00:34:50;;;;;;;8.77;7.37;;;;;;;11.15;90.69;97963.00;4120370;28;20648;-84
2023/03/22 00:36:55;;;;;;;9.00;7.20;;;;;;;11.18;90.86;97967.16;4120560;28;20641;-84
2023/03/22 00:39:00;;;;;;;11.10;7.47;;;;;;;11.11;89.84;97960.72;4117874;28;20678;-84
2023/03/22 00:41:08;;;;;;;9.43;7.20;;;;;;;11.01;89.63;97952.72;4121219;28;21261;-84
2023/03/22 00:43:12;;;;;;;9.23;7.17;;;;;;;10.96;89.42;97954.84;4125631;28;20633;-84
2023/03/22 00:45:16;;;;;;;8.47;7.50;;;;;;;10.86;88.69;97948.59;4128430;28;20644;-83
2023/03/22 00:47:19;;;;;;;9.50;7.30;;;;;;;10.83;88.57;97948.00;4119784;28;20636;-83
2023/03/22 00:49:24;;;;;;;9.03;6.37;;;;;;;10.80;88.80;97946.44;4108488;28;20672;-83
2023/03/22 00:51:27;;;;;;;7.47;6.77;;;;;;;10.79;90.15;97948.31;4124434;28;20719;-83
2023/03/22 00:53:31;;;;;;;9.53;6.90;;;;;;;10.75;89.75;97946.88;4111445;28;20734;-83
2023/03/22 00:55:34;;;;;;;7.40;6.37;;;;;;;10.71;89.58;97940.22;4102267;28;20704;-83
2023/03/22 00:57:38;;;;;;;9.17;7.03;;;;;;;10.69;88.74;97934.25;4124083;28;20675;-84
2023/03/22 00:59:41;;;;;;;8.10;6.23;;;;;;;10.66;89.54;97937.09;4137768;28;20643;-83
2023/03/22 01:01:46;;;;;;;7.77;6.03;;;;;;;10.64;90.24;97933.75;4140332;28;20668;-84
2023/03/22 01:03:49;;;;;;;7.43;6.07;;;;;;;10.61;89.50;97940.03;4121068;28;20747;-83
2023/03/22 01:05:55;;;;;;;7.20;6.33;;;;;;;10.58;89.81;97934.19;4136895;28;20665;-84
2023/03/22 01:08:01;;;;;;;7.20;5.90;;;;;;;10.55;90.35;97930.03;4122642;28;21269;-83
2023/03/22 01:10:05;;;;;;;7.60;5.87;;;;;;;10.52;89.49;97929.41;4125795;28;20722;-83
2023/03/22 01:12:08;;;;;;;6.17;5.43;;;;;;;10.49;90.69;97929.63;4128161;28;20652;-83
2023/03/22 01:14:12;;;;;;;6.93;5.60;;;;;;;10.43;90.87;97925.69;4140115;28;20638;-83
2023/03/22 01:16:17;;;;;;;11.00;6.20;;;;;;;10.44;90.78;97923.91;4125388;28;20635;-84
2023/03/22 01:18:21;;;;;;;7.33;5.27;;;;;;;10.42;91.04;97921.41;4118197;28;21456;-83
2023/03/22 01:20:24;;;;;;;6.73;5.00;;;;;;;10.38;90.28;97917.34;4109058;28;22481;-83
2023/03/22 01:22:27;;;;;;;8.00;5.20;;;;;;;10.38;89.98;97919.13;4125084;28;20641;-84
2023/03/22 01:24:31;;;;;;;6.50;4.83;;;;;;;10.35;90.39;97916.75;4127329;28;20666;-83
2023/03/22 01:26:34;;;;;;;6.50;4.90;;;;;;;10.33;90.45;97918.63;4124976;28;20937;-83
2023/03/22 01:28:39;;;;;;;6.60;5.07;;;;;;;10.32;90.54;97910.94;4123130;28;21091;-83
2023/03/22 01:30:42;;;;;;;7.90;5.17;;;;;;;10.28;90.73;97907.69;4117566;28;20688;-83
2023/03/22 01:32:45;;;;;;;7.30;5.00;;;;;;;10.24;90.65;97898.44;4120455;28;20688;-83
2023/03/22 01:34:51;;;;;;;9.10;4.77;;;;;;;10.22;89.84;97897.69;4125793;28;20641;-83
2023/03/22 01:36:55;;;;;;;8.87;4.63;;;;;;;10.21;90.24;97903.84;4127865;28;20651;-83
2023/03/22 01:38:58;;;;;;;7.93;5.30;;;;;;;10.18;90.31;97904.06;4126106;28;20643;-83
2023/03/22 01:41:01;;;;;;;5.00;4.40;;;;;;;10.15;90.43;97906.88;4136739;28;20639;-83
2023/03/22 01:43:12;;;;;;;6.00;5.33;;;;;;;10.13;89.68;97895.75;4135624;28;20647;-83
2023/03/22 01:45:36;;;;;;;6.73;4.77;;;;;;;10.11;90.09;97902.81;4113720;28;21249;-83
2023/03/22 01:47:41;;;;;;;7.40;5.30;;;;;;;10.08;90.38;97897.81;4125228;28;20662;-83
2023/03/22 01:49:45;;;;;;;5.27;4.70;;;;;;;10.05;90.37;97894.59;4130046;28;20646;-83
2023/03/22 01:51:51;;;;;;;7.10;5.20;;;;;;;10.04;90.36;97898.13;4141592;28;20628;-83
2023/03/22 01:54:13;;;;;;;5.43;4.80;;;;;;;9.99;89.88;97895.03;4123588;28;20635;-83
2023/03/22 01:56:18;;;;;;;7.60;5.33;;;;;;;9.96;90.45;97895.22;4111144;28;20640;-83
2023/03/22 01:58:21;;;;;;;7.43;5.20;;;;;;;9.94;90.75;97892.72;4136698;28;20635;-83
2023/03/22 02:00:29;;;;;;;5.07;4.20;;;;;;;9.92;90.52;97899.78;4124652;28;20630;-83
2023/03/22 02:02:53;;;;;;;6.23;4.87;;;;;;;9.89;90.57;97888.72;4121668;28;20627;-83
2023/03/22 02:05:03;;;;;;;8.70;5.20;;;;;;;9.86;90.06;97892.41;4110399;28;20713;-83
2023/03/22 02:07:14;;;;;;;6.27;5.13;;;;;;;9.84;90.04;97888.22;4102739;28;20678;-83
2023/03/22 02:09:20;;;;;;;8.07;4.50;;;;;;;9.81;90.29;97887.63;4120947;28;20671;-84
2023/03/22 02:11:28;;;;;;;7.73;4.80;;;;;;;9.77;90.63;97886.16;4139662;28;21068;-83
2023/03/22 02:14:00;;;;;;;6.97;5.20;;;;;;;9.75;90.55;97883.66;4138667;28;20774;-83
2023/03/22 02:16:30;;;;;;;6.57;4.30;;;;;;;9.68;90.18;97881.56;4119481;28;20989;-83
2023/03/22 02:18:48;;;;;;;5.10;4.60;;;;;;;9.62;90.41;97880.22;4118838;28;20649;-83
2023/03/22 02:21:16;;;;;;;10.23;5.17;;;;;;;9.59;89.60;97882.19;4132617;28;20631;-83
2023/03/22 02:23:48;;;;;;;5.40;4.90;;;;;;;9.52;90.23;97873.16;4109732;28;20701;-83
2023/03/22 02:26:12;;;;;;;6.13;4.63;;;;;;;9.47;89.50;97873.44;4134743;28;21374;-83
2023/03/22 02:28:24;;;;;;;8.80;5.10;;;;;;;9.46;90.24;97865.75;4118133;28;21027;-83
2023/03/22 02:31:18;;;;;;;7.07;4.90;;;;;;;9.45;90.54;97875.31;4120405;28;20649;-83
2023/03/22 02:33:49;;;;;;;5.90;5.30;;;;;;;9.41;91.15;97873.00;4086295;28;20638;-83
2023/03/22 02:36:15;;;;;;;6.90;4.73;;;;;;;9.40;90.52;97864.38;4067956;29;20654;-83
2023/03/22 02:38:57;;;;;;;4.73;4.23;;;;;;;9.39;90.60;97864.47;4084095;28;20642;-83
2023/03/22 02:41:09;;;;;;;5.60;4.80;;;;;;;9.38;90.48;97861.97;4119531;28;20651;-83
2023/03/22 02:43:16;;;;;;;7.80;5.50;;;;;;;9.34;90.86;97863.16;4116353;28;20632;-83
2023/03/22 02:45:27;;;;;;;5.63;5.10;;;;;;;9.30;90.40;97859.06;4115618;28;20671;-83
2023/03/22 02:47:38;;;;;;;5.87;5.27;;;;;;;9.24;90.39;97855.09;4122383;28;21218;-83
2023/03/22 02:49:46;;;;;;;7.50;5.10;;;;;;;9.25;90.67;97863.75;4121176;28;20642;-83
2023/03/22 02:51:53;;;;;;;6.97;4.73;;;;;;;9.23;90.20;97863.84;4135613;28;20674;-83
2023/03/22 02:54:03;;;;;;;7.20;4.80;;;;;;;9.21;90.96;97860.50;4133407;28;20660;-83
2023/03/22 02:56:08;;;;;;;8.23;5.20;;;;;;;9.20;90.27;97864.06;4119414;28;20646;-83
2023/03/22 02:58:14;;;;;;;5.70;5.10;;;;;;;9.18;90.79;97860.72;4135351;28;20631;-83
2023/03/22 03:00:19;;;;;;;6.60;4.67;;;;;;;9.15;90.35;97855.72;4120588;28;20627;-83
2023/03/22 03:02:23;;;;;;;6.73;4.87;;;;;;;9.11;90.69;97859.47;4119875;28;21279;-83
2023/03/22 03:04:29;;;;;;;6.53;5.33;;;;;;;9.11;90.32;97853.41;4125892;28;21431;-83
2023/03/22 03:06:38;;;;;;;5.07;4.50;;;;;;;9.07;91.63;97857.16;4121941;28;20686;-83
2023/03/22 03:08:42;;;;;;;9.90;5.60;;;;;;;9.05;90.84;97859.88;4123105;28;20694;-83
2023/03/22 03:10:47;;;;;;;8.50;5.50;;;;;;;9.00;90.16;97854.13;4136096;28;22291;-83
2023/03/22 03:12:51;;;;;;;8.63;5.10;;;;;;;9.00;90.37;97861.91;4128120;28;20638;-83
2023/03/22 03:14:54;;;;;;;7.00;5.27;;;;;;;8.99;90.41;97856.81;4122041;28;20672;-83
2023/03/22 03:17:07;;;;;;;6.17;4.83;;;;;;;9.00;91.73;97861.91;4120560;28;20628;-83
2023/03/22 03:19:19;;;;;;;7.73;5.20;;;;;;;8.94;91.43;97856.28;4132310;28;20716;-83
2023/03/22 03:21:31;;;;;;;9.87;6.00;;;;;;;8.89;91.01;97855.78;4137912;28;20662;-83
2023/03/22 03:23:45;;;;;;;14.30;7.20;;;;;;;8.89;90.54;97854.94;4108054;28;20640;-83
2023/03/22 03:25:57;;;;;;;8.13;5.23;;;;;;;8.86;90.51;97862.94;4124954;28;20639;-83
2023/03/22 03:28:05;;;;;;;7.83;5.10;;;;;;;8.84;90.74;97860.44;4139099;28;20737;-83
2023/03/22 03:30:12;;;;;;;7.33;5.50;;;;;;;8.83;90.43;97857.94;4125718;28;20679;-83
2023/03/22 03:32:24;;;;;;;8.95;5.10;;;;;;;8.80;90.54;97868.53;4135280;28;24331;-83
2023/03/22 03:34:30;;;;;;;11.63;5.70;;;;;;;8.80;90.75;97865.94;4136785;28;20286;-83
2023/03/22 03:36:36;;;;;;;10.00;4.93;;;;;;;8.77;91.18;97866.97;4121884;28;20227;-83
2023/03/22 03:38:44;;;;;;;7.10;4.70;;;;;;;8.73;90.83;97868.09;4135448;28;20662;-83
2023/03/22 03:40:50;;;;;;;6.40;5.45;;;;;;;8.73;91.04;97865.50;4125724;28;21205;-83
2023/03/22 03:42:55;;;;;;;7.07;5.22;;;;;;;8.76;90.80;97864.47;4124045;28;20220;-83
2023/03/22 03:44:59;;;;;;;5.07;4.50;;;;;;;8.74;91.45;97868.94;4121048;28;20200;-83
2023/03/22 03:47:03;;;;;;;11.33;5.47;;;;;;;8.72;91.47;97871.63;4124949;28;20310;-83
2023/03/22 03:49:07;;;;;;;6.82;5.07;;;;;;;8.70;90.88;97865.69;4124389;28;20636;-83
2023/03/22 03:51:11;;;;;;;7.33;5.43;;;;;;;8.70;91.42;97872.66;4124201;28;20228;-83
2023/03/22 03:53:15;;;;;;;6.72;5.43;;;;;;;8.64;90.83;97867.84;4137937;28;20720;-83
2023/03/22 03:55:18;;;;;;;5.95;5.15;;;;;;;8.59;92.15;97869.94;4126265;28;20294;-83
2023/03/22 03:57:22;;;;;;;7.00;6.22;;;;;;;8.55;90.94;97868.44;4114199;28;20209;-83
2023/03/22 03:59:25;;;;;;;6.90;5.25;;;;;;;8.53;91.85;97867.72;4136579;28;20295;-83
2023/03/22 04:01:29;;;;;;;6.78;5.30;;;;;;;8.52;92.48;97866.03;4106297;28;20205;-83
2023/03/22 04:03:49;;;;;;;6.93;5.47;;;;;;;8.51;92.34;97878.22;4123365;28;20258;-83
2023/03/22 04:06:08;;;;;;;6.53;5.43;;;;;;;8.50;91.30;97878.31;4126005;28;20681;-83
2023/03/22 04:08:15;;;;;;;7.13;5.28;;;;;;;8.44;91.23;97876.91;4128108;28;20774;-83
2023/03/22 04:10:18;;;;;;;7.57;5.80;;;;;;;8.43;92.38;97884.81;4138152;28;20207;-83
2023/03/22 04:12:23;;;;;;;7.43;4.90;;;;;;;8.42;92.25;97882.31;4124380;28;20666;-83
2023/03/22 04:14:45;;;;;;;9.18;4.93;;;;;;;8.37;91.48;97872.19;4133554;28;20705;-83
2023/03/22 04:16:56;;;;;;;6.15;5.20;;;;;;;8.32;90.65;97871.66;4134325;28;20211;-83
2023/03/22 04:19:00;;;;;;;6.97;5.70;;;;;;;8.30;92.06;97875.28;4143156;28;20555;-83
2023/03/22 04:21:04;;;;;;;6.20;4.57;;;;;;;8.33;91.75;97873.34;4124137;28;20662;-83
2023/03/22 04:23:15;;;;;;;7.53;4.90;;;;;;;8.33;90.01;97873.34;4112650;28;20634;-83
2023/03/22 04:25:21;;;;;;;7.80;5.10;;;;;;;8.31;90.20;97871.75;4121198;28;21000;-83
2023/03/22 04:27:35;;;;;;;7.00;5.30;;;;;;;8.33;90.31;97870.75;4123243;28;20648;-83
2023/03/22 04:29:47;;;;;;;6.10;4.90;;;;;;;8.28;91.29;97870.19;4126419;28;20207;-83
2023/03/22 04:32:10;;;;;;;7.70;5.47;;;;;;;8.28;90.52;97867.59;4135391;28;20224;-83
2023/03/22 04:34:17;;;;;;;9.45;5.10;;;;;;;8.26;90.74;97861.66;4103002;28;20234;-83
2023/03/22 04:36:30;;;;;;;8.63;5.70;;;;;;;8.26;90.50;97855.66;4124275;28;20205;-83
2023/03/22 04:38:48;;;;;;;9.23;6.50;;;;;;;8.25;91.06;97862.59;4138816;28;20877;-83
2023/03/22 04:40:56;;;;;;;8.00;6.10;;;;;;;8.26;90.25;97864.25;4117456;28;20219;-83
2023/03/22 04:43:10;;;;;;;5.88;4.95;;;;;;;8.22;91.61;97854.97;4121531;28;20236;-83
2023/03/22 04:45:28;;;;;;;6.60;5.53;;;;;;;8.22;90.76;97860.19;4105478;28;20213;-83
2023/03/22 04:47:35;;;;;;;6.97;5.20;;;;;;;8.22;90.13;97849.78;4125577;28;20207;-83
2023/03/22 04:49:41;;;;;;;6.70;5.40;;;;;;;8.19;89.70;97856.94;4103542;28;20271;-83
2023/03/22 04:51:45;;;;;;;8.60;5.90;;;;;;;8.16;89.55;97854.53;4124602;28;20250;-83
2023/03/22 04:54:17;;;;;;;7.20;5.70;;;;;;;8.12;90.62;97851.31;4120976;28;20631;-83
2023/03/22 04:56:21;;;;;;;7.18;5.18;;;;;;;8.11;91.55;97844.44;4114533;28;20705;-83
2023/03/22 04:58:27;;;;;;;9.05;5.50;;;;;;;8.08;90.51;97842.00;4122221;28;20231;-83
2023/03/22 05:00:31;;;;;;;6.60;5.38;;;;;;;8.07;90.69;97849.88;4134140;28;20208;-83
2023/03/22 05:02:37;;;;;;;8.43;5.95;;;;;;;8.09;90.70;97843.69;4120370;28;20196;-83
2023/03/22 05:04:48;;;;;;;10.82;5.72;;;;;;;8.04;92.32;97844.88;4120991;28;20230;-83
2023/03/22 05:07:14;;;;;;;8.65;5.53;;;;;;;8.01;91.13;97835.53;4120340;28;20210;-83
2023/03/22 05:09:23;;;;;;;8.82;5.90;;;;;;;7.99;89.83;97837.38;4132174;28;20302;-83
2023/03/22 05:11:28;;;;;;;6.82;4.70;;;;;;;7.96;89.53;97829.78;4122087;28;20211;-83
2023/03/22 05:13:46;;;;;;;7.63;5.35;;;;;;;7.94;89.74;97832.56;4120627;28;20734;-83
2023/03/22 05:15:50;;;;;;;7.60;5.25;;;;;;;7.93;90.61;97836.09;4134806;28;20203;-83
2023/03/22 05:17:58;;;;;;;10.70;6.20;;;;;;;7.94;89.36;97825.63;4110189;28;20213;-83
2023/03/22 05:20:08;;;;;;;8.45;6.15;;;;;;;7.90;89.31;97826.72;4129026;28;20291;-83
2023/03/22 05:22:13;;;;;;;7.57;5.90;;;;;;;7.89;90.42;97830.25;4141199;28;20740;-83
2023/03/22 05:24:25;;;;;;;8.40;6.18;;;;;;;7.87;90.35;97823.50;4128227;28;20791;-83
2023/03/22 05:26:28;;;;;;;7.20;5.85;;;;;;;7.88;90.31;97820.81;4128782;28;20801;-83
2023/03/22 05:28:31;;;;;;;7.25;5.80;;;;;;;7.88;89.75;97814.78;4120137;28;20229;-83
2023/03/22 05:30:42;;;;;;;10.25;5.70;;;;;;;7.88;90.41;97817.38;4121470;28;20232;-83
2023/03/22 05:33:04;;;;;;;7.80;5.70;;;;;;;7.89;90.47;97824.22;4123815;28;20227;-83
2023/03/22 05:35:16;;;;;;;7.90;6.03;;;;;;;7.86;90.69;97824.44;4130168;28;20211;-83
2023/03/22 05:37:24;;;;;;;9.00;7.30;;;;;;;7.84;90.71;97821.09;4120415;28;20215;-83
2023/03/22 05:39:32;;;;;;;9.75;8.43;;;;;;;7.85;90.10;97826.19;4110834;28;20223;-83
2023/03/22 05:41:35;;;;;;;9.13;8.23;;;;;;;7.86;90.92;97829.63;4127616;28;20261;-83
2023/03/22 05:43:39;;;;;;;10.77;8.27;;;;;;;7.86;89.61;97827.03;4110098;28;21445;-83
2023/03/22 05:45:44;;;;;;;9.10;8.10;;;;;;;7.86;89.35;97814.03;4117587;28;20703;-83
2023/03/22 05:48:07;;;;;;;11.63;7.95;;;;;;;7.85;90.24;97826.19;4122328;28;20293;-83
2023/03/22 05:50:12;;;;;;;9.68;7.47;;;;;;;7.87;90.33;97832.13;4121439;28;20330;-84
2023/03/22 05:52:15;;;;;;;10.38;8.02;;;;;;;7.91;90.55;97832.75;4104916;28;20318;-83
2023/03/22 05:54:29;;;;;;;11.02;7.70;;;;;;;7.92;89.41;97824.88;4108330;28;20302;-82
2023/03/22 05:56:33;;;;;;;9.48;7.90;;;;;;;7.99;89.84;97836.56;4109786;28;20205;-82
2023/03/22 05:58:41;;;;;;;9.25;7.25;;;;;;;8.10;89.18;97837.56;4125664;28;20216;-82
2023/03/22 06:00:50;;;;;;;9.63;6.68;;;;;;;8.18;89.37;97839.72;4137427;28;20234;-82
2023/03/22 06:02:56;;;;;;;7.33;6.10;;;;;;;8.21;90.35;97836.91;4127900;28;20647;-82
2023/03/22 06:04:59;;;;;;;12.25;6.50;;;;;;;8.25;89.86;97836.59;4142371;28;20673;-81
2023/03/22 06:07:02;;;;;;;7.68;6.00;;;;;;;8.38;88.87;97836.69;4109331;28;20323;-82
2023/03/22 06:09:13;;;;;;;8.10;6.70;;;;;;;8.50;89.11;97837.53;4117197;28;20236;-82
2023/03/22 06:11:23;;;;;;;8.48;6.22;;;;;;;8.66;89.05;97852.97;4141570;28;20291;-82
2023/03/22 06:13:27;;;;;;;8.63;6.35;;;;;;;8.81;87.86;97855.44;4123276;28;20261;-82
2023/03/22 06:15:30;;;;;;;6.95;6.13;;;;;;;8.95;88.29;97858.78;4135122;28;20223;-84
2023/03/22 06:17:39;;;;;;;9.02;6.53;;;;;;;9.13;88.32;97860.19;4140028;28;20669;-81
2023/03/22 06:19:45;;;;;;;8.43;6.13;;;;;;;9.25;88.00;97854.16;4117703;28;20207;-84
2023/03/22 06:21:50;;;;;;;9.80;6.25;;;;;;;9.35;86.78;97863.03;4103115;28;20879;-85
2023/03/22 06:23:56;;;;;;;7.57;6.40;;;;;;;9.45;86.71;97864.06;4107964;28;20288;-84
2023/03/22 06:26:00;;;;;;;10.57;7.23;;;;;;;9.60;87.79;97868.25;4122517;28;20657;-83
2023/03/22 06:28:03;;;;;;;10.50;7.00;;;;;;;9.77;86.61;97873.13;4131229;28;20646;-84
2023/03/22 06:30:11;;;;;;;9.07;6.93;;;;;;;9.94;86.47;97884.91;4132602;28;20633;-86
2023/03/22 06:32:32;;;;;;;7.10;6.25;;;;;;;10.12;85.59;97888.84;4114984;28;20232;-86
2023/03/22 06:34:37;;;;;;;9.15;6.65;;;;;;;10.32;84.44;97889.09;4129619;28;20290;-86
2023/03/22 06:36:41;;;;;;;9.40;6.17;;;;;;;10.44;85.12;97896.06;4126062;28;20240;-86
2023/03/22 06:38:48;;;;;;;7.57;6.47;;;;;;;10.64;84.31;97887.66;4136827;28;20630;-87
2023/03/22 06:40:52;;;;;;;9.00;6.33;;;;;;;10.80;83.91;97900.44;4124132;28;21240;-86
2023/03/22 06:42:55;;;;;;;9.13;6.27;;;;;;;10.98;82.48;97902.53;4128731;28;21188;-86
2023/03/22 06:44:58;;;;;;;8.27;6.67;;;;;;;11.13;82.53;97901.44;4121199;28;20694;-86
2023/03/22 06:47:05;;;;;;;10.63;6.37;;;;;;;11.21;81.56;97909.50;4124684;28;20737;-87
2023/03/22 06:49:40;;;;;;;8.47;6.43;;;;;;;11.42;81.84;97911.38;4092409;28;20645;-86
2023/03/22 06:51:44;;;;;;;7.67;6.57;;;;;;;11.55;81.79;97912.16;4105918;28;21021;-86
2023/03/22 06:53:48;;;;;;;8.93;6.47;;;;;;;11.67;80.82;97919.06;4123566;28;21005;-86
2023/03/22 06:55:51;;;;;;;7.37;6.37;;;;;;;11.88;79.77;97908.66;4125541;28;20681;-86
2023/03/22 06:57:59;;;;;;;12.80;9.57;;;;;;;12.16;81.16;97917.81;4128842;28;20645;-86
2023/03/22 07:00:03;;;;;;;7.70;6.20;;;;;;;12.31;79.61;97914.84;4129043;28;20731;-85
2023/03/22 07:02:07;;;;;;;8.27;6.23;;;;;;;12.45;80.64;97912.00;4126050;28;21199;-86
2023/03/22 07:04:10;;;;;;;9.20;6.97;;;;;;;12.62;83.33;97920.16;4140899;28;20673;-86
2023/03/22 07:06:15;;;;;;;7.20;6.00;;;;;;;12.78;81.29;97907.53;4137572;28;20666;-86
2023/03/22 07:08:23;;;;;;;8.80;6.57;;;;;;;12.97;80.62;97919.03;4137414;28;20676;-85
2023/03/22 07:10:27;;;;;;;10.93;6.30;;;;;;;13.20;81.09;97918.84;4121935;28;21098;-86
2023/03/22 07:12:31;;;;;;;9.13;6.80;;;;;;;13.28;78.68;97918.22;4121930;28;20658;-86
2023/03/22 07:14:39;;;;;;;8.23;6.80;;;;;;;13.43;80.76;97923.03;4127898;28;21013;-86
2023/03/22 07:16:55;;;;;;;9.53;7.17;;;;;;;13.68;80.14;97925.25;4125276;28;20690;-86
2023/03/22 07:19:00;;;;;;;13.00;7.87;;;;;;;13.91;79.65;97925.03;4135971;28;20692;-86
2023/03/22 07:21:04;;;;;;;7.87;7.07;;;;;;;14.08;79.24;97929.69;4106947;28;20641;-85
2023/03/22 07:23:10;;;;;;;9.07;7.20;;;;;;;14.31;78.98;97933.81;4128217;28;21042;-85
2023/03/22 07:25:21;;;;;;;19.43;12.30;;;;;;;14.45;77.45;97918.56;4126255;28;20633;-85
2023/03/22 07:27:30;;;;;;;21.10;13.90;;;;;;;14.62;77.48;97924.00;4121479;28;20637;-87
2023/03/22 07:29:34;;;;;;;13.10;10.60;;;;;;;14.78;75.33;97937.44;4121746;28;21216;-84
2023/03/22 07:31:38;;;;;;;9.63;7.30;;;;;;;14.81;74.81;97920.63;4137314;28;20716;-84
2023/03/22 07:33:47;;;;;;;16.10;10.30;;;;;;;14.90;75.69;97919.78;4125104;28;21131;-84
2023/03/22 07:35:51;;;;;;;14.40;11.10;;;;;;;15.05;75.90;97923.66;4112411;28;20803;-83
2023/03/22 07:37:55;;;;;;;12.33;9.30;;;;;;;15.22;77.52;97922.06;4141860;28;20633;-84
2023/03/22 07:40:07;;;;;;;10.73;8.90;;;;;;;15.38;75.43;97925.00;4126371;28;20644;-84
2023/03/22 07:42:11;;;;;;;11.00;9.17;;;;;;;15.57;75.27;97932.88;4111204;28;20646;-83
2023/03/22 07:44:17;;;;;;;10.63;9.13;;;;;;;15.77;77.37;97932.72;4117690;28;20638;-83
2023/03/22 07:46:37;;;;;;;11.60;10.20;;;;;;;16.01;78.11;97933.06;4098932;28;21023;-84
2023/03/22 07:48:58;;;;;;;17.83;10.40;;;;;;;16.28;75.54;97935.81;4117051;28;20642;-83
2023/03/22 07:51:20;;;;;;;13.30;10.47;;;;;;;16.47;75.62;97936.59;4123740;28;21021;-83
2023/03/22 07:53:23;;;;;;;11.43;9.50;;;;;;;16.62;75.44;97937.75;4119250;28;20673;-84
2023/03/22 07:55:28;;;;;;;10.90;8.93;;;;;;;16.73;72.77;97935.78;4136027;28;21050;-81
2023/03/22 07:57:31;;;;;;;10.40;8.60;;;;;;;16.85;71.79;97934.59;4110707;28;25383;-82
2023/03/22 07:59:35;;;;;;;8.77;7.57;;;;;;;16.99;70.87;97936.75;4127590;28;21063;-83
2023/03/22 08:01:42;;;;;;;7.87;6.90;;;;;;;17.18;71.95;97941.88;4139898;28;20643;-83
2023/03/22 08:04:05;;;;;;;9.17;7.23;;;;;;;17.20;67.53;97932.88;4124303;28;20654;-82
2023/03/22 08:06:24;;;;;;;7.37;6.67;;;;;;;17.18;68.36;97939.25;4125965;28;21036;-82
2023/03/22 08:08:27;;;;;;;7.27;6.57;;;;;;;17.20;68.14;97938.16;4118417;28;20629;-82
2023/03/22 08:10:32;;;;;;;8.30;6.47;;;;;;;17.22;68.30;97938.84;4113679;28;20674;-82
2023/03/22 08:12:36;;;;;;;6.80;6.20;;;;;;;17.25;67.63;97932.44;4110066;28;21436;-82
2023/03/22 08:14:59;;;;;;;6.50;5.80;;;;;;;17.35;66.84;97938.47;4127571;28;20709;-83
2023/03/22 08:17:03;;;;;;;7.00;6.23;;;;;;;17.35;68.13;97935.81;4134712;28;20673;-82
2023/03/22 08:19:06;;;;;;;6.50;5.80;;;;;;;17.45;68.27;97942.69;4128559;28;20685;-81
2023/03/22 08:21:12;;;;;;;8.57;5.83;;;;;;;17.53;67.61;97940.16;4131120;28;20719;-82
2023/03/22 08:23:16;;;;;;;7.07;5.90;;;;;;;17.58;66.73;97936.06;4119415;28;20640;-82
2023/03/22 08:25:41;;;;;;;6.17;5.57;;;;;;;17.55;66.87;97940.81;4110326;28;20766;-82
2023/03/22 08:27:46;;;;;;;6.30;5.70;;;;;;;17.65;69.04;97934.47;4122518;28;20633;-83
2023/03/22 08:29:49;;;;;;;6.70;5.63;;;;;;;17.81;69.54;97941.69;4112374;28;20774;-82
2023/03/22 08:31:52;;;;;;;5.63;4.90;;;;;;;17.98;68.57;97942.50;4141021;28;20686;-82
2023/03/22 08:33:56;;;;;;;5.53;5.00;;;;;;;18.07;68.26;97933.66;4143253;28;20654;-82
2023/03/22 08:36:06;;;;;;;6.03;4.87;;;;;;;18.20;67.61;97943.84;4142686;28;21230;-82
2023/03/22 08:38:16;;;;;;;6.10;4.80;;;;;;;18.24;67.66;97938.09;4136164;28;21251;-82
2023/03/22 08:40:22;;;;;;;5.60;4.53;;;;;;;18.31;67.20;97933.00;4134284;28;20717;-82
2023/03/22 08:42:31;;;;;;;6.43;4.90;;;;;;;18.38;66.50;97926.13;4139991;28;20630;-82
2023/03/22 08:44:34;;;;;;;9.03;5.10;;;;;;;18.42;66.96;97923.84;4118673;28;20636;-82
2023/03/22 08:46:38;;;;;;;5.10;4.20;;;;;;;18.61;66.67;97930.69;4140503;28;20647;-82
2023/03/22 08:48:49;;;;;;;6.60;4.10;;;;;;;18.79;70.23;97926.97;4132400;28;20688;-83
2023/03/22 08:51:05;;;;;;;4.90;4.20;;;;;;;19.01;68.16;97937.00;4138664;28;20640;-83
2023/03/22 08:53:27;;;;;;;4.20;3.67;;;;;;;19.11;66.04;97933.25;4126970;28;21300;-82
2023/03/22 08:55:47;;;;;;;6.33;3.90;;;;;;;19.25;63.47;97927.34;4103893;28;20198;-83
2023/03/22 08:58:09;;;;;;;4.10;3.60;;;;;;;19.32;64.39;97925.72;4122008;28;20677;-82
2023/03/22 09:00:24;;;;;;;5.25;3.33;;;;;;;19.42;64.58;97934.31;4139632;28;20764;-83
2023/03/22 09:02:44;;;;;;;5.20;2.47;;;;;;;19.47;66.20;97924.91;4135049;28;20305;-82
2023/03/22 09:04:47;;;;;;;3.77;2.40;;;;;;;19.43;63.93;97920.91;4135902;28;20702;-83
2023/03/22 09:06:50;;;;;;;4.47;2.43;;;;;;;19.46;64.68;97920.59;4120124;28;20637;-82
2023/03/22 09:08:54;;;;;;;6.53;2.20;;;;;;;19.51;62.88;97920.09;4106351;28;20660;-82
2023/03/22 09:10:58;;;;;;;3.60;2.10;;;;;;;19.48;62.80;97913.34;4104519;28;21224;-82
2023/03/22 09:13:03;;;;;;;3.43;1.60;;;;;;;19.36;61.64;97907.69;4134874;28;21242;-84
2023/03/22 09:15:09;;;;;;;3.03;1.80;;;;;;;19.32;62.61;97898.41;4121655;28;20654;-84
2023/03/22 09:17:17;;;;;;;3.30;1.27;;;;;;;19.40;61.91;97904.56;4123396;28;20675;-82
2023/03/22 09:19:23;;;;;;;3.03;1.73;;;;;;;19.57;63.72;97904.38;4120156;28;20748;-83
2023/03/22 09:21:28;;;;;;;3.90;1.70;;;;;;;19.61;62.47;97899.63;4125396;28;21013;-83
2023/03/22 09:23:42;;;;;;;4.57;3.17;;;;;;;19.76;62.83;97897.97;4122626;28;20633;-83
2023/03/22 09:25:46;;;;;;;5.10;2.50;;;;;;;19.83;62.75;97894.50;4109658;28;20632;-83
2023/03/22 09:27:54;;;;;;;5.50;3.27;;;;;;;19.70;61.74;97896.78;4140743;28;20711;-82
2023/03/22 09:29:57;;;;;;;3.70;2.00;;;;;;;19.63;60.53;97887.03;4138391;28;20631;-82
2023/03/22 09:32:01;;;;;;;2.67;1.60;;;;;;;19.84;62.38;97885.53;4124684;28;20722;-82
2023/03/22 09:34:08;;;;;;;3.50;1.90;;;;;;;20.07;62.09;97899.78;4119295;28;20629;-82
2023/03/22 09:36:11;;;;;;;2.57;1.90;;;;;;;19.91;63.68;97889.22;4133827;28;20639;-82
2023/03/22 09:38:16;;;;;;;3.83;3.00;;;;;;;19.80;61.46;97886.88;4121697;28;20656;-82
2023/03/22 09:40:22;;;;;;;3.10;1.97;;;;;;;19.78;61.54;97880.91;4138223;28;20721;-82
2023/03/22 09:42:32;;;;;;;2.47;1.87;;;;;;;19.83;61.05;97877.75;4122161;28;21244;-82
2023/03/22 09:44:41;;;;;;;5.33;3.50;;;;;;;19.68;61.65;97879.41;4099114;28;20628;-82
2023/03/22 09:46:52;;;;;;;4.00;2.03;;;;;;;19.44;61.94;97882.91;4125438;28;20666;-82
2023/03/22 09:48:58;;;;;;;3.30;2.20;;;;;;;19.50;60.73;97876.94;4108365;28;20763;-82
2023/03/22 09:51:03;;;;;;;2.83;2.10;;;;;;;19.61;62.23;97873.16;4123864;28;21469;-82
2023/03/22 09:53:09;;;;;;;2.93;2.23;;;;;;;19.77;62.24;97876.63;4139305;28;20637;-82
2023/03/22 09:55:18;;;;;;;2.60;2.10;;;;;;;19.66;61.99;97869.00;4117427;28;20682;-82
2023/03/22 09:57:26;;;;;;;3.10;1.90;;;;;;;19.73;63.44;97862.06;4126242;28;20622;-82
2023/03/22 09:59:34;;;;;;;2.70;2.00;;;;;;;19.71;64.06;97861.41;4127433;28;20645;-82
2023/03/22 10:01:41;;;;;;;3.10;1.80;;;;;;;19.83;63.32;97858.25;4130507;28;20997;-82
2023/03/22 10:04:10;;;;;;;4.20;2.00;;;;;;;19.83;60.90;97849.47;4124048;28;21315;-82
2023/03/22 10:06:16;;;;;;;2.77;2.10;;;;;;;20.00;62.27;97851.94;4124591;28;20640;-82
2023/03/22 10:08:46;;;;;;;2.40;2.13;;;;;;;19.91;62.33;97854.78;4140067;28;20673;-82